To NAV CANADA Home Page Login to a new session Search on AWWS site Disclaimer Vers la page française équivalente Tips FAQ What's new on the site To the Forecasts and Observations / NOTAM section To "File a Flight Plan" website Publications and other links Update of the User's profile FIC Telephone Numbers My Weather Data Folder Route Weather Data Regional Weather Data Local Weather Data To the Forecasts and Observations / NOTAM section
Request Generated 10/19/2018 at 15:28:02 UTC . Weather information available at that time is displayed.

METAR/TAF

KAMLOOPS/BC    

METAR CYKA 191500Z 09005KT 40SM FEW002 FEW180 BKN250 02/01 A3039 RMK SF1AC1CI3 SLP305=
SPECI CYKA 191442Z 12004KT 40SM FEW002 FEW180 BKN250 03/02 A3038 RMK SF1AC1CI3 SLP303=
METAR CYKA 191400Z 06003KT 40SM BKN180 03/02 A3038 RMK AC7 SLP303=
METAR CYKA 191300Z 08006KT 20SM FEW002 BKN220 03/02 A3037 RMK SF1CI5 SLP297=

TAF CYKA 191238Z 1913/2001 09005KT P6SM FEW002 BKN240 TEMPO 1913/1918
BKN002
FM191800 09008KT P6SM SCT240
RMK NXT FCST BY 191900Z=
Your time UTC time
Weather data provided by Environment Canada and NAV CANADA